sensor_id;sensor_type;location;lat;lon;timestamp;P1;durP1;ratioP1;P2;durP2;ratioP2
78209;SDS011;67485;48.816;9.930;2024-03-22T00:00:15;7.97;;;4.10;;
78209;SDS011;67485;48.816;9.930;2024-03-22T00:02:41;8.97;;;4.23;;
78209;SDS011;67485;48.816;9.930;2024-03-22T00:05:07;7.45;;;4.10;;
78209;SDS011;67485;48.816;9.930;2024-03-22T00:07:33;8.27;;;3.90;;
78209;SDS011;67485;48.816;9.930;2024-03-22T00:09:58;7.90;;;4.03;;
78209;SDS011;67485;48.816;9.930;2024-03-22T00:12:25;6.30;;;3.75;;
78209;SDS011;67485;48.816;9.930;2024-03-22T00:14:50;7.07;;;4.13;;
78209;SDS011;67485;48.816;9.930;2024-03-22T00:17:20;10.93;;;4.65;;
78209;SDS011;67485;48.816;9.930;2024-03-22T00:19:46;9.57;;;4.88;;
78209;SDS011;67485;48.816;9.930;2024-03-22T00:22:12;10.52;;;4.00;;
78209;SDS011;67485;48.816;9.930;2024-03-22T00:24:37;8.00;;;4.60;;
78209;SDS011;67485;48.816;9.930;2024-03-22T00:27:03;7.68;;;4.45;;
78209;SDS011;67485;48.816;9.930;2024-03-22T00:29:29;6.70;;;3.97;;
78209;SDS011;67485;48.816;9.930;2024-03-22T00:31:55;8.77;;;4.20;;
78209;SDS011;67485;48.816;9.930;2024-03-22T00:34:20;5.87;;;3.63;;
78209;SDS011;67485;48.816;9.930;2024-03-22T00:36:46;6.72;;;3.60;;
78209;SDS011;67485;48.816;9.930;2024-03-22T00:39:12;8.83;;;4.20;;
78209;SDS011;67485;48.816;9.930;2024-03-22T00:41:38;6.95;;;4.47;;
78209;SDS011;67485;48.816;9.930;2024-03-22T00:44:04;6.15;;;3.53;;
78209;SDS011;67485;48.816;9.930;2024-03-22T00:46:30;8.20;;;3.88;;
78209;SDS011;67485;48.816;9.930;2024-03-22T00:48:56;6.93;;;4.23;;
78209;SDS011;67485;48.816;9.930;2024-03-22T00:51:23;5.88;;;3.55;;
78209;SDS011;67485;48.816;9.930;2024-03-22T00:53:50;7.22;;;3.85;;
78209;SDS011;67485;48.816;9.930;2024-03-22T00:56:16;6.45;;;3.58;;
78209;SDS011;67485;48.816;9.930;2024-03-22T00:58:42;8.70;;;3.87;;
78209;SDS011;67485;48.816;9.930;2024-03-22T01:01:07;7.82;;;4.05;;
78209;SDS011;67485;48.816;9.930;2024-03-22T01:03:33;7.43;;;3.90;;
78209;SDS011;67485;48.816;9.930;2024-03-22T01:05:59;5.45;;;3.45;;
78209;SDS011;67485;48.816;9.930;2024-03-22T01:08:25;6.37;;;3.63;;
78209;SDS011;67485;48.816;9.930;2024-03-22T01:10:51;6.95;;;3.20;;
78209;SDS011;67485;48.816;9.930;2024-03-22T01:13:16;6.95;;;3.65;;
78209;SDS011;67485;48.816;9.930;2024-03-22T01:15:42;6.53;;;3.40;;
78209;SDS011;67485;48.816;9.930;2024-03-22T01:18:08;11.18;;;4.13;;
78209;SDS011;67485;48.816;9.930;2024-03-22T01:20:34;7.03;;;3.60;;
78209;SDS011;67485;48.816;9.930;2024-03-22T01:22:59;9.07;;;4.28;;
78209;SDS011;67485;48.816;9.930;2024-03-22T01:25:26;9.15;;;4.28;;
78209;SDS011;67485;48.816;9.930;2024-03-22T01:27:53;8.83;;;4.43;;
78209;SDS011;67485;48.816;9.930;2024-03-22T01:30:19;7.97;;;3.90;;
78209;SDS011;67485;48.816;9.930;2024-03-22T01:32:44;6.93;;;3.88;;
78209;SDS011;67485;48.816;9.930;2024-03-22T01:35:10;6.80;;;3.30;;
78209;SDS011;67485;48.816;9.930;2024-03-22T01:37:36;6.57;;;3.38;;
78209;SDS011;67485;48.816;9.930;2024-03-22T01:40:02;6.37;;;3.50;;
78209;SDS011;67485;48.816;9.930;2024-03-22T01:42:30;6.80;;;4.25;;
78209;SDS011;67485;48.816;9.930;2024-03-22T01:44:55;8.30;;;3.70;;
78209;SDS011;67485;48.816;9.930;2024-03-22T01:47:21;6.60;;;3.97;;
78209;SDS011;67485;48.816;9.930;2024-03-22T01:49:47;6.22;;;4.07;;
78209;SDS011;67485;48.816;9.930;2024-03-22T01:52:15;7.07;;;4.28;;
78209;SDS011;67485;48.816;9.930;2024-03-22T01:54:41;7.30;;;4.27;;
78209;SDS011;67485;48.816;9.930;2024-03-22T01:57:08;6.90;;;4.10;;
78209;SDS011;67485;48.816;9.930;2024-03-22T01:59:33;7.93;;;4.00;;
78209;SDS011;67485;48.816;9.930;2024-03-22T02:01:59;6.60;;;4.20;;
78209;SDS011;67485;48.816;9.930;2024-03-22T02:04:25;7.53;;;3.90;;
78209;SDS011;67485;48.816;9.930;2024-03-22T02:06:51;8.13;;;4.00;;
78209;SDS011;67485;48.816;9.930;2024-03-22T02:09:16;6.72;;;3.67;;
78209;SDS011;67485;48.816;9.930;2024-03-22T02:11:43;6.88;;;4.05;;
78209;SDS011;67485;48.816;9.930;2024-03-22T02:14:08;8.00;;;4.27;;
78209;SDS011;67485;48.816;9.930;2024-03-22T02:16:34;9.82;;;4.15;;
78209;SDS011;67485;48.816;9.930;2024-03-22T02:19:00;6.80;;;4.10;;
78209;SDS011;67485;48.816;9.930;2024-03-22T02:21:26;7.53;;;4.22;;
78209;SDS011;67485;48.816;9.930;2024-03-22T02:23:51;6.97;;;4.20;;
78209;SDS011;67485;48.816;9.930;2024-03-22T02:26:17;7.15;;;4.13;;
78209;SDS011;67485;48.816;9.930;2024-03-22T02:28:42;9.23;;;4.10;;
78209;SDS011;67485;48.816;9.930;2024-03-22T02:31:08;8.33;;;4.70;;
78209;SDS011;67485;48.816;9.930;2024-03-22T02:33:34;8.73;;;4.40;;
78209;SDS011;67485;48.816;9.930;2024-03-22T02:35:59;9.73;;;3.80;;
78209;SDS011;67485;48.816;9.930;2024-03-22T02:38:25;7.30;;;3.95;;
78209;SDS011;67485;48.816;9.930;2024-03-22T02:40:51;8.50;;;4.20;;
78209;SDS011;67485;48.816;9.930;2024-03-22T02:43:17;7.03;;;4.18;;
78209;SDS011;67485;48.816;9.930;2024-03-22T02:45:44;8.15;;;4.47;;
78209;SDS011;67485;48.816;9.930;2024-03-22T02:48:11;7.63;;;4.40;;
78209;SDS011;67485;48.816;9.930;2024-03-22T02:50:36;10.65;;;4.00;;
78209;SDS011;67485;48.816;9.930;2024-03-22T02:53:03;7.60;;;3.53;;
78209;SDS011;67485;48.816;9.930;2024-03-22T02:55:29;9.97;;;4.00;;
78209;SDS011;67485;48.816;9.930;2024-03-22T02:57:56;6.05;;;3.10;;
78209;SDS011;67485;48.816;9.930;2024-03-22T03:00:22;5.47;;;2.95;;
78209;SDS011;67485;48.816;9.930;2024-03-22T03:02:48;6.72;;;3.30;;
78209;SDS011;67485;48.816;9.930;2024-03-22T03:05:15;8.87;;;3.60;;
78209;SDS011;67485;48.816;9.930;2024-03-22T03:07:41;5.80;;;3.30;;
78209;SDS011;67485;48.816;9.930;2024-03-22T03:10:07;5.70;;;3.23;;
78209;SDS011;67485;48.816;9.930;2024-03-22T03:12:32;6.40;;;3.33;;
78209;SDS011;67485;48.816;9.930;2024-03-22T03:14:58;6.13;;;3.53;;
78209;SDS011;67485;48.816;9.930;2024-03-22T03:17:24;6.05;;;2.90;;
78209;SDS011;67485;48.816;9.930;2024-03-22T03:19:49;7.37;;;3.60;;
78209;SDS011;67485;48.816;9.930;2024-03-22T03:22:15;6.47;;;3.50;;
78209;SDS011;67485;48.816;9.930;2024-03-22T03:24:40;11.40;;;3.80;;
78209;SDS011;67485;48.816;9.930;2024-03-22T03:27:06;6.67;;;2.80;;
78209;SDS011;67485;48.816;9.930;2024-03-22T03:29:32;6.25;;;3.47;;
78209;SDS011;67485;48.816;9.930;2024-03-22T03:31:58;7.03;;;3.50;;
78209;SDS011;67485;48.816;9.930;2024-03-22T03:34:23;8.93;;;3.40;;
78209;SDS011;67485;48.816;9.930;2024-03-22T03:36:49;5.77;;;2.80;;
78209;SDS011;67485;48.816;9.930;2024-03-22T03:39:14;5.45;;;2.95;;
78209;SDS011;67485;48.816;9.930;2024-03-22T03:41:40;6.73;;;2.93;;
78209;SDS011;67485;48.816;9.930;2024-03-22T03:44:06;5.43;;;3.10;;
78209;SDS011;67485;48.816;9.930;2024-03-22T03:46:31;5.80;;;3.20;;
78209;SDS011;67485;48.816;9.930;2024-03-22T03:48:57;5.97;;;3.50;;
78209;SDS011;67485;48.816;9.930;2024-03-22T03:51:22;7.78;;;3.35;;
78209;SDS011;67485;48.816;9.930;2024-03-22T03:53:48;8.50;;;3.90;;
78209;SDS011;67485;48.816;9.930;2024-03-22T03:56:14;6.22;;;3.40;;
78209;SDS011;67485;48.816;9.930;2024-03-22T03:58:39;13.23;;;5.53;;
78209;SDS011;67485;48.816;9.930;2024-03-22T04:01:06;10.35;;;5.38;;
78209;SDS011;67485;48.816;9.930;2024-03-22T04:03:32;7.30;;;3.97;;
78209;SDS011;67485;48.816;9.930;2024-03-22T04:05:58;7.40;;;3.38;;
78209;SDS011;67485;48.816;9.930;2024-03-22T04:08:24;9.70;;;5.40;;
78209;SDS011;67485;48.816;9.930;2024-03-22T04:10:52;8.57;;;4.20;;
78209;SDS011;67485;48.816;9.930;2024-03-22T04:13:18;9.13;;;3.70;;
78209;SDS011;67485;48.816;9.930;2024-03-22T04:15:44;8.33;;;3.83;;
78209;SDS011;67485;48.816;9.930;2024-03-22T04:18:09;6.78;;;3.40;;
78209;SDS011;67485;48.816;9.930;2024-03-22T04:20:35;9.33;;;3.50;;
78209;SDS011;67485;48.816;9.930;2024-03-22T04:23:01;8.10;;;3.97;;
78209;SDS011;67485;48.816;9.930;2024-03-22T04:25:26;7.07;;;3.47;;
78209;SDS011;67485;48.816;9.930;2024-03-22T04:27:52;6.20;;;3.22;;
78209;SDS011;67485;48.816;9.930;2024-03-22T04:30:18;5.53;;;3.20;;
78209;SDS011;67485;48.816;9.930;2024-03-22T04:32:45;6.25;;;3.15;;
78209;SDS011;67485;48.816;9.930;2024-03-22T04:35:11;7.63;;;3.30;;
78209;SDS011;67485;48.816;9.930;2024-03-22T04:37:37;10.38;;;3.60;;
78209;SDS011;67485;48.816;9.930;2024-03-22T04:40:03;5.30;;;3.07;;
78209;SDS011;67485;48.816;9.930;2024-03-22T04:42:29;5.38;;;3.20;;
78209;SDS011;67485;48.816;9.930;2024-03-22T04:44:54;6.47;;;3.00;;
78209;SDS011;67485;48.816;9.930;2024-03-22T04:47:20;8.80;;;3.47;;
78209;SDS011;67485;48.816;9.930;2024-03-22T04:49:46;8.23;;;3.47;;
78209;SDS011;67485;48.816;9.930;2024-03-22T04:52:11;6.85;;;2.95;;
78209;SDS011;67485;48.816;9.930;2024-03-22T04:54:37;7.13;;;3.57;;
78209;SDS011;67485;48.816;9.930;2024-03-22T04:57:02;7.03;;;3.30;;
78209;SDS011;67485;48.816;9.930;2024-03-22T04:59:28;7.75;;;3.40;;
78209;SDS011;67485;48.816;9.930;2024-03-22T05:01:54;7.53;;;4.25;;
78209;SDS011;67485;48.816;9.930;2024-03-22T05:04:19;8.77;;;4.67;;
78209;SDS011;67485;48.816;9.930;2024-03-22T05:06:45;12.50;;;6.30;;
78209;SDS011;67485;48.816;9.930;2024-03-22T05:09:11;11.18;;;5.43;;
78209;SDS011;67485;48.816;9.930;2024-03-22T05:11:36;8.00;;;4.37;;
78209;SDS011;67485;48.816;9.930;2024-03-22T05:14:02;7.50;;;3.78;;
78209;SDS011;67485;48.816;9.930;2024-03-22T05:16:28;9.00;;;4.73;;
78209;SDS011;67485;48.816;9.930;2024-03-22T05:18:54;11.10;;;5.38;;
78209;SDS011;67485;48.816;9.930;2024-03-22T05:21:19;12.07;;;5.40;;
78209;SDS011;67485;48.816;9.930;2024-03-22T05:23:45;12.15;;;4.88;;
78209;SDS011;67485;48.816;9.930;2024-03-22T05:26:11;7.40;;;3.70;;
78209;SDS011;67485;48.816;9.930;2024-03-22T05:28:37;6.03;;;3.27;;
78209;SDS011;67485;48.816;9.930;2024-03-22T05:31:02;6.70;;;2.93;;
78209;SDS011;67485;48.816;9.930;2024-03-22T05:33:28;10.18;;;3.45;;
78209;SDS011;67485;48.816;9.930;2024-03-22T05:35:54;6.30;;;3.22;;
78209;SDS011;67485;48.816;9.930;2024-03-22T05:38:20;6.37;;;3.50;;
78209;SDS011;67485;48.816;9.930;2024-03-22T05:40:45;8.82;;;3.78;;
78209;SDS011;67485;48.816;9.930;2024-03-22T05:43:13;7.37;;;3.30;;
78209;SDS011;67485;48.816;9.930;2024-03-22T05:45:39;9.70;;;3.72;;
78209;SDS011;67485;48.816;9.930;2024-03-22T05:48:05;7.35;;;3.70;;
78209;SDS011;67485;48.816;9.930;2024-03-22T05:50:31;8.43;;;4.30;;
78209;SDS011;67485;48.816;9.930;2024-03-22T05:52:56;7.95;;;4.05;;
78209;SDS011;67485;48.816;9.930;2024-03-22T05:55:22;8.47;;;4.70;;
78209;SDS011;67485;48.816;9.930;2024-03-22T05:57:48;12.25;;;4.93;;
78209;SDS011;67485;48.816;9.930;2024-03-22T06:00:14;11.60;;;4.97;;
78209;SDS011;67485;48.816;9.930;2024-03-22T06:02:39;11.10;;;5.70;;
78209;SDS011;67485;48.816;9.930;2024-03-22T06:05:05;12.02;;;5.95;;
78209;SDS011;67485;48.816;9.930;2024-03-22T06:07:31;11.23;;;6.13;;
78209;SDS011;67485;48.816;9.930;2024-03-22T06:10:05;11.00;;;5.80;;
78209;SDS011;67485;48.816;9.930;2024-03-22T06:12:31;14.10;;;6.70;;
78209;SDS011;67485;48.816;9.930;2024-03-22T06:14:57;12.37;;;6.00;;
78209;SDS011;67485;48.816;9.930;2024-03-22T06:17:22;12.57;;;6.35;;
78209;SDS011;67485;48.816;9.930;2024-03-22T06:19:48;11.00;;;5.70;;
78209;SDS011;67485;48.816;9.930;2024-03-22T06:22:14;10.68;;;6.07;;
78209;SDS011;67485;48.816;9.930;2024-03-22T06:24:39;10.80;;;5.53;;
78209;SDS011;67485;48.816;9.930;2024-03-22T06:27:05;12.40;;;5.40;;
78209;SDS011;67485;48.816;9.930;2024-03-22T06:29:32;9.57;;;5.53;;
78209;SDS011;67485;48.816;9.930;2024-03-22T06:31:58;10.30;;;5.57;;
78209;SDS011;67485;48.816;9.930;2024-03-22T06:34:23;10.20;;;5.60;;
78209;SDS011;67485;48.816;9.930;2024-03-22T06:36:49;12.65;;;5.35;;
78209;SDS011;67485;48.816;9.930;2024-03-22T06:39:16;9.23;;;5.45;;
78209;SDS011;67485;48.816;9.930;2024-03-22T06:41:42;10.45;;;5.60;;
78209;SDS011;67485;48.816;9.930;2024-03-22T06:44:07;9.57;;;5.07;;
78209;SDS011;67485;48.816;9.930;2024-03-22T06:46:37;9.60;;;5.30;;
78209;SDS011;67485;48.816;9.930;2024-03-22T06:49:03;9.68;;;5.25;;
78209;SDS011;67485;48.816;9.930;2024-03-22T06:51:28;11.03;;;4.97;;
78209;SDS011;67485;48.816;9.930;2024-03-22T06:53:54;9.93;;;5.32;;
78209;SDS011;67485;48.816;9.930;2024-03-22T06:56:20;11.13;;;5.20;;
78209;SDS011;67485;48.816;9.930;2024-03-22T06:58:46;9.73;;;5.00;;
78209;SDS011;67485;48.816;9.930;2024-03-22T07:01:11;9.17;;;5.30;;
78209;SDS011;67485;48.816;9.930;2024-03-22T07:03:37;12.88;;;6.15;;
78209;SDS011;67485;48.816;9.930;2024-03-22T07:06:03;12.40;;;6.00;;
78209;SDS011;67485;48.816;9.930;2024-03-22T07:08:31;10.85;;;5.90;;
78209;SDS011;67485;48.816;9.930;2024-03-22T07:10:57;11.95;;;6.00;;
78209;SDS011;67485;48.816;9.930;2024-03-22T07:13:22;12.73;;;5.80;;
78209;SDS011;67485;48.816;9.930;2024-03-22T07:15:48;10.75;;;5.72;;
78209;SDS011;67485;48.816;9.930;2024-03-22T07:18:14;14.02;;;6.03;;
78209;SDS011;67485;48.816;9.930;2024-03-22T07:20:41;11.23;;;6.17;;
78209;SDS011;67485;48.816;9.930;2024-03-22T07:23:07;12.77;;;6.70;;
78209;SDS011;67485;48.816;9.930;2024-03-22T07:25:33;10.57;;;5.83;;
78209;SDS011;67485;48.816;9.930;2024-03-22T07:27:58;10.75;;;6.32;;
78209;SDS011;67485;48.816;9.930;2024-03-22T07:30:24;13.67;;;6.60;;
78209;SDS011;67485;48.816;9.930;2024-03-22T07:32:50;12.27;;;7.18;;
78209;SDS011;67485;48.816;9.930;2024-03-22T07:35:16;11.75;;;6.93;;
78209;SDS011;67485;48.816;9.930;2024-03-22T07:37:42;13.55;;;7.35;;
78209;SDS011;67485;48.816;9.930;2024-03-22T07:40:07;17.43;;;7.53;;
78209;SDS011;67485;48.816;9.930;2024-03-22T07:42:33;12.23;;;6.68;;
78209;SDS011;67485;48.816;9.930;2024-03-22T07:44:59;15.20;;;7.70;;
78209;SDS011;67485;48.816;9.930;2024-03-22T07:47:25;14.77;;;7.68;;
78209;SDS011;67485;48.816;9.930;2024-03-22T07:49:51;11.10;;;7.17;;
78209;SDS011;67485;48.816;9.930;2024-03-22T07:52:16;13.88;;;7.97;;
78209;SDS011;67485;48.816;9.930;2024-03-22T07:54:42;15.97;;;7.67;;
78209;SDS011;67485;48.816;9.930;2024-03-22T07:57:08;12.70;;;7.53;;
78209;SDS011;67485;48.816;9.930;2024-03-22T07:59:35;13.85;;;7.55;;
78209;SDS011;67485;48.816;9.930;2024-03-22T08:02:01;14.73;;;8.10;;
78209;SDS011;67485;48.816;9.930;2024-03-22T08:04:28;12.43;;;7.28;;
78209;SDS011;67485;48.816;9.930;2024-03-22T08:06:54;13.65;;;7.95;;
78209;SDS011;67485;48.816;9.930;2024-03-22T08:09:20;13.20;;;8.10;;
78209;SDS011;67485;48.816;9.930;2024-03-22T08:11:46;13.20;;;7.93;;
78209;SDS011;67485;48.816;9.930;2024-03-22T08:14:13;14.32;;;8.23;;
78209;SDS011;67485;48.816;9.930;2024-03-22T08:16:38;10.60;;;7.20;;
78209;SDS011;67485;48.816;9.930;2024-03-22T08:19:04;12.57;;;7.40;;
78209;SDS011;67485;48.816;9.930;2024-03-22T08:21:30;16.40;;;7.00;;
78209;SDS011;67485;48.816;9.930;2024-03-22T08:23:55;13.93;;;7.53;;
78209;SDS011;67485;48.816;9.930;2024-03-22T08:26:21;11.95;;;7.68;;
78209;SDS011;67485;48.816;9.930;2024-03-22T08:28:47;14.43;;;7.23;;
78209;SDS011;67485;48.816;9.930;2024-03-22T08:31:13;13.05;;;7.90;;
78209;SDS011;67485;48.816;9.930;2024-03-22T08:33:39;13.07;;;7.78;;
78209;SDS011;67485;48.816;9.930;2024-03-22T08:36:05;12.90;;;7.37;;
78209;SDS011;67485;48.816;9.930;2024-03-22T08:38:31;14.55;;;7.03;;
78209;SDS011;67485;48.816;9.930;2024-03-22T08:40:57;11.77;;;7.35;;
78209;SDS011;67485;48.816;9.930;2024-03-22T08:43:23;12.13;;;6.97;;
78209;SDS011;67485;48.816;9.930;2024-03-22T08:45:51;13.82;;;7.47;;
78209;SDS011;67485;48.816;9.930;2024-03-22T08:48:17;12.88;;;6.82;;
78209;SDS011;67485;48.816;9.930;2024-03-22T08:50:43;12.93;;;7.03;;
78209;SDS011;67485;48.816;9.930;2024-03-22T08:53:09;14.80;;;7.27;;
78209;SDS011;67485;48.816;9.930;2024-03-22T08:55:35;11.02;;;6.68;;
78209;SDS011;67485;48.816;9.930;2024-03-22T08:58:02;12.65;;;6.50;;
78209;SDS011;67485;48.816;9.930;2024-03-22T09:00:29;14.90;;;6.80;;
78209;SDS011;67485;48.816;9.930;2024-03-22T09:02:55;10.38;;;6.20;;
78209;SDS011;67485;48.816;9.930;2024-03-22T09:05:20;10.68;;;6.70;;
78209;SDS011;67485;48.816;9.930;2024-03-22T09:07:46;11.47;;;6.60;;
78209;SDS011;67485;48.816;9.930;2024-03-22T09:10:13;11.07;;;6.65;;
78209;SDS011;67485;48.816;9.930;2024-03-22T09:12:39;10.90;;;6.43;;
78209;SDS011;67485;48.816;9.930;2024-03-22T09:15:05;11.13;;;6.43;;
78209;SDS011;67485;48.816;9.930;2024-03-22T09:17:32;9.68;;;6.05;;
78209;SDS011;67485;48.816;9.930;2024-03-22T09:19:58;13.00;;;5.93;;
78209;SDS011;67485;48.816;9.930;2024-03-22T09:22:24;9.77;;;4.80;;
78209;SDS011;67485;48.816;9.930;2024-03-22T09:24:49;13.20;;;5.13;;
78209;SDS011;67485;48.816;9.930;2024-03-22T09:27:15;9.30;;;5.55;;
78209;SDS011;67485;48.816;9.930;2024-03-22T09:29:41;10.40;;;6.13;;
78209;SDS011;67485;48.816;9.930;2024-03-22T09:32:08;10.40;;;5.70;;
78209;SDS011;67485;48.816;9.930;2024-03-22T09:34:34;8.88;;;5.82;;
78209;SDS011;67485;48.816;9.930;2024-03-22T09:37:00;7.53;;;5.30;;
78209;SDS011;67485;48.816;9.930;2024-03-22T09:39:26;10.00;;;5.07;;
78209;SDS011;67485;48.816;9.930;2024-03-22T09:41:52;9.13;;;4.82;;
78209;SDS011;67485;48.816;9.930;2024-03-22T09:44:22;8.05;;;4.95;;
78209;SDS011;67485;48.816;9.930;2024-03-22T09:46:49;8.43;;;4.68;;
78209;SDS011;67485;48.816;9.930;2024-03-22T09:49:16;8.83;;;4.77;;
78209;SDS011;67485;48.816;9.930;2024-03-22T09:51:43;10.27;;;5.00;;
78209;SDS011;67485;48.816;9.930;2024-03-22T09:54:09;9.90;;;5.45;;
78209;SDS011;67485;48.816;9.930;2024-03-22T09:56:37;6.88;;;4.25;;
78209;SDS011;67485;48.816;9.930;2024-03-22T09:59:04;10.30;;;4.47;;
78209;SDS011;67485;48.816;9.930;2024-03-22T10:01:30;9.07;;;5.00;;
78209;SDS011;67485;48.816;9.930;2024-03-22T10:03:57;8.32;;;4.30;;
78209;SDS011;67485;48.816;9.930;2024-03-22T10:06:23;8.60;;;4.10;;
78209;SDS011;67485;48.816;9.930;2024-03-22T10:08:48;7.37;;;4.40;;
78209;SDS011;67485;48.816;9.930;2024-03-22T10:11:14;9.23;;;4.90;;
78209;SDS011;67485;48.816;9.930;2024-03-22T10:13:40;7.97;;;4.43;;
78209;SDS011;67485;48.816;9.930;2024-03-22T10:16:05;7.73;;;4.80;;
78209;SDS011;67485;48.816;9.930;2024-03-22T10:18:32;6.32;;;3.95;;
78209;SDS011;67485;48.816;9.930;2024-03-22T10:21:02;6.32;;;4.32;;
78209;SDS011;67485;48.816;9.930;2024-03-22T10:23:29;7.03;;;4.55;;
78209;SDS011;67485;48.816;9.930;2024-03-22T10:25:56;6.32;;;4.50;;
78209;SDS011;67485;48.816;9.930;2024-03-22T10:28:23;7.63;;;4.23;;
78209;SDS011;67485;48.816;9.930;2024-03-22T10:30:50;7.38;;;4.50;;
78209;SDS011;67485;48.816;9.930;2024-03-22T10:33:17;9.02;;;4.03;;
78209;SDS011;67485;48.816;9.930;2024-03-22T10:35:44;8.68;;;4.10;;
78209;SDS011;67485;48.816;9.930;2024-03-22T10:38:11;6.60;;;4.20;;
78209;SDS011;67485;48.816;9.930;2024-03-22T10:40:38;9.67;;;4.30;;
78209;SDS011;67485;48.816;9.930;2024-03-22T10:43:09;5.70;;;4.10;;
78209;SDS011;67485;48.816;9.930;2024-03-22T10:45:35;7.90;;;4.43;;
78209;SDS011;67485;48.816;9.930;2024-03-22T10:48:03;9.50;;;4.55;;
78209;SDS011;67485;48.816;9.930;2024-03-22T10:50:39;6.53;;;4.07;;
78209;SDS011;67485;48.816;9.930;2024-03-22T10:53:25;6.23;;;4.17;;
78209;SDS011;67485;48.816;9.930;2024-03-22T10:55:52;6.38;;;4.57;;
78209;SDS011;67485;48.816;9.930;2024-03-22T10:58:21;9.50;;;4.38;;
78209;SDS011;67485;48.816;9.930;2024-03-22T11:00:47;6.82;;;3.95;;
78209;SDS011;67485;48.816;9.930;2024-03-22T11:03:20;7.30;;;4.25;;
78209;SDS011;67485;48.816;9.930;2024-03-22T11:05:49;8.43;;;4.00;;
78209;SDS011;67485;48.816;9.930;2024-03-22T11:08:27;6.72;;;4.47;;
78209;SDS011;67485;48.816;9.930;2024-03-22T11:10:54;9.15;;;4.82;;
78209;SDS011;67485;48.816;9.930;2024-03-22T11:13:21;7.97;;;4.10;;
78209;SDS011;67485;48.816;9.930;2024-03-22T11:15:50;8.63;;;4.63;;
78209;SDS011;67485;48.816;9.930;2024-03-22T11:18:17;7.40;;;4.43;;
78209;SDS011;67485;48.816;9.930;2024-03-22T11:20:43;6.60;;;4.25;;
78209;SDS011;67485;48.816;9.930;2024-03-22T11:23:12;8.38;;;4.40;;
78209;SDS011;67485;48.816;9.930;2024-03-22T11:25:38;9.60;;;4.55;;
78209;SDS011;67485;48.816;9.930;2024-03-22T11:28:04;7.07;;;4.40;;
78209;SDS011;67485;48.816;9.930;2024-03-22T11:30:30;9.85;;;4.50;;
78209;SDS011;67485;48.816;9.930;2024-03-22T11:33:04;7.53;;;4.22;;
78209;SDS011;67485;48.816;9.930;2024-03-22T11:35:33;7.43;;;4.40;;
78209;SDS011;67485;48.816;9.930;2024-03-22T11:37:59;10.23;;;4.40;;
78209;SDS011;67485;48.816;9.930;2024-03-22T11:40:26;6.80;;;3.80;;
78209;SDS011;67485;48.816;9.930;2024-03-22T11:42:53;9.85;;;4.00;;
78209;SDS011;67485;48.816;9.930;2024-03-22T11:45:20;5.07;;;3.28;;
78209;SDS011;67485;48.816;9.930;2024-03-22T11:47:47;7.78;;;4.10;;
78209;SDS011;67485;48.816;9.930;2024-03-22T11:50:13;7.53;;;3.50;;
78209;SDS011;67485;48.816;9.930;2024-03-22T11:52:42;6.30;;;3.55;;
78209;SDS011;67485;48.816;9.930;2024-03-22T11:55:12;6.95;;;3.90;;
78209;SDS011;67485;48.816;9.930;2024-03-22T11:57:38;6.38;;;3.13;;
78209;SDS011;67485;48.816;9.930;2024-03-22T12:00:04;8.07;;;3.60;;
78209;SDS011;67485;48.816;9.930;2024-03-22T12:02:40;6.38;;;2.88;;
78209;SDS011;67485;48.816;9.930;2024-03-22T12:05:07;6.47;;;3.70;;
78209;SDS011;67485;48.816;9.930;2024-03-22T12:07:33;8.97;;;3.47;;
78209;SDS011;67485;48.816;9.930;2024-03-22T12:09:59;5.60;;;3.40;;
78209;SDS011;67485;48.816;9.930;2024-03-22T12:12:25;4.95;;;3.20;;
78209;SDS011;67485;48.816;9.930;2024-03-22T12:14:52;4.43;;;3.03;;
78209;SDS011;67485;48.816;9.930;2024-03-22T12:17:17;6.22;;;3.97;;
78209;SDS011;67485;48.816;9.930;2024-03-22T12:19:43;5.10;;;3.00;;
78209;SDS011;67485;48.816;9.930;2024-03-22T12:22:09;7.25;;;3.50;;
78209;SDS011;67485;48.816;9.930;2024-03-22T12:24:35;8.02;;;3.63;;
78209;SDS011;67485;48.816;9.930;2024-03-22T12:27:01;6.95;;;3.05;;
78209;SDS011;67485;48.816;9.930;2024-03-22T12:29:27;5.60;;;3.37;;
78209;SDS011;67485;48.816;9.930;2024-03-22T12:31:53;10.50;;;3.75;;
78209;SDS011;67485;48.816;9.930;2024-03-22T12:34:19;5.70;;;3.83;;
78209;SDS011;67485;48.816;9.930;2024-03-22T12:36:45;4.70;;;3.25;;
78209;SDS011;67485;48.816;9.930;2024-03-22T12:39:11;8.70;;;3.57;;
78209;SDS011;67485;48.816;9.930;2024-03-22T12:41:36;6.27;;;3.27;;
78209;SDS011;67485;48.816;9.930;2024-03-22T12:44:02;4.85;;;3.60;;
78209;SDS011;67485;48.816;9.930;2024-03-22T12:46:28;6.30;;;3.20;;
78209;SDS011;67485;48.816;9.930;2024-03-22T12:48:54;5.83;;;2.70;;
78209;SDS011;67485;48.816;9.930;2024-03-22T12:51:20;6.70;;;3.03;;
78209;SDS011;67485;48.816;9.930;2024-03-22T12:53:46;7.90;;;3.63;;
78209;SDS011;67485;48.816;9.930;2024-03-22T12:56:12;6.03;;;3.40;;
78209;SDS011;67485;48.816;9.930;2024-03-22T12:58:37;5.47;;;3.70;;
78209;SDS011;67485;48.816;9.930;2024-03-22T13:01:04;6.50;;;3.00;;
78209;SDS011;67485;48.816;9.930;2024-03-22T13:03:31;5.32;;;3.20;;
78209;SDS011;67485;48.816;9.930;2024-03-22T13:05:58;7.22;;;2.80;;
78209;SDS011;67485;48.816;9.930;2024-03-22T13:08:23;5.33;;;3.13;;
78209;SDS011;67485;48.816;9.930;2024-03-22T13:10:49;7.70;;;3.13;;
78209;SDS011;67485;48.816;9.930;2024-03-22T13:13:15;6.53;;;3.37;;
78209;SDS011;67485;48.816;9.930;2024-03-22T13:15:44;6.82;;;3.38;;
78209;SDS011;67485;48.816;9.930;2024-03-22T13:18:12;7.40;;;3.20;;
78209;SDS011;67485;48.816;9.930;2024-03-22T13:20:38;5.05;;;2.92;;
78209;SDS011;67485;48.816;9.930;2024-03-22T13:23:04;5.37;;;3.23;;
78209;SDS011;67485;48.816;9.930;2024-03-22T13:25:30;7.35;;;3.55;;
78209;SDS011;67485;48.816;9.930;2024-03-22T13:27:56;6.28;;;3.33;;
78209;SDS011;67485;48.816;9.930;2024-03-22T13:30:21;6.73;;;3.57;;
78209;SDS011;67485;48.816;9.930;2024-03-22T13:32:47;6.25;;;3.80;;
78209;SDS011;67485;48.816;9.930;2024-03-22T13:35:13;6.83;;;3.63;;
78209;SDS011;67485;48.816;9.930;2024-03-22T13:37:40;4.93;;;2.92;;
78209;SDS011;67485;48.816;9.930;2024-03-22T13:40:06;6.90;;;3.50;;
78209;SDS011;67485;48.816;9.930;2024-03-22T13:42:32;7.72;;;3.45;;
78209;SDS011;67485;48.816;9.930;2024-03-22T13:44:58;6.37;;;3.40;;
78209;SDS011;67485;48.816;9.930;2024-03-22T13:47:24;5.65;;;3.00;;
78209;SDS011;67485;48.816;9.930;2024-03-22T13:49:52;7.60;;;3.63;;
78209;SDS011;67485;48.816;9.930;2024-03-22T13:52:17;6.17;;;3.10;;
78209;SDS011;67485;48.816;9.930;2024-03-22T13:54:43;8.15;;;4.85;;
78209;SDS011;67485;48.816;9.930;2024-03-22T13:57:09;8.57;;;3.97;;
78209;SDS011;67485;48.816;9.930;2024-03-22T13:59:34;9.02;;;4.47;;
78209;SDS011;67485;48.816;9.930;2024-03-22T14:02:01;6.30;;;3.73;;
78209;SDS011;67485;48.816;9.930;2024-03-22T14:04:27;6.40;;;3.30;;
78209;SDS011;67485;48.816;9.930;2024-03-22T14:06:54;5.38;;;3.47;;
78209;SDS011;67485;48.816;9.930;2024-03-22T14:09:20;7.03;;;3.40;;
78209;SDS011;67485;48.816;9.930;2024-03-22T14:11:45;6.05;;;2.55;;
78209;SDS011;67485;48.816;9.930;2024-03-22T14:14:14;7.07;;;3.88;;
78209;SDS011;67485;48.816;9.930;2024-03-22T14:16:41;5.65;;;3.00;;
78209;SDS011;67485;48.816;9.930;2024-03-22T14:19:07;4.93;;;2.97;;
78209;SDS011;67485;48.816;9.930;2024-03-22T14:21:34;7.35;;;3.00;;
78209;SDS011;67485;48.816;9.930;2024-03-22T14:24:00;9.13;;;3.78;;
78209;SDS011;67485;48.816;9.930;2024-03-22T14:26:26;11.23;;;4.07;;
78209;SDS011;67485;48.816;9.930;2024-03-22T14:28:51;5.25;;;3.00;;
78209;SDS011;67485;48.816;9.930;2024-03-22T14:31:18;5.03;;;2.40;;
78209;SDS011;67485;48.816;9.930;2024-03-22T14:33:44;4.17;;;2.20;;
78209;SDS011;67485;48.816;9.930;2024-03-22T14:36:11;5.38;;;2.25;;